createdAt,value
2019-02-01T00:01:52.451Z,1.20
2019-02-01T00:04:20.391Z,1.20
2019-02-01T00:06:48.201Z,1.00
2019-02-01T00:09:16.029Z,1.40
2019-02-01T00:11:43.963Z,1.00
2019-02-01T00:14:11.789Z,0.90
2019-02-01T00:16:39.697Z,1.50
2019-02-01T00:19:07.615Z,1.50
2019-02-01T00:21:35.470Z,1.30
2019-02-01T00:24:04.195Z,1.50
2019-02-01T00:26:32.154Z,1.30
2019-02-01T00:29:00.020Z,1.30
2019-02-01T00:31:27.923Z,1.60
2019-02-01T00:33:55.778Z,1.30
2019-02-01T00:36:26.098Z,1.50
2019-02-01T00:38:53.611Z,1.60
2019-02-01T00:41:21.546Z,1.60
2019-02-01T00:43:49.814Z,1.60
2019-02-01T00:46:17.634Z,1.70
2019-02-01T00:48:45.592Z,1.70
2019-02-01T00:51:13.490Z,1.40
2019-02-01T00:53:41.340Z,1.60
2019-02-01T00:56:09.301Z,1.70
2019-02-01T00:58:37.138Z,1.40
2019-02-01T01:01:05.494Z,1.60
2019-02-01T01:03:33.447Z,1.90
2019-02-01T01:06:01.230Z,1.90
2019-02-01T01:08:29.171Z,2.00
2019-02-01T01:10:57.146Z,1.80
2019-02-01T01:13:27.658Z,1.70
2019-02-01T01:15:55.456Z,1.60
2019-02-01T01:18:24.371Z,2.00
2019-02-01T01:20:52.372Z,1.80
2019-02-01T01:23:20.341Z,2.10
2019-02-01T01:25:48.358Z,1.90
2019-02-01T01:28:16.396Z,2.00
2019-02-01T01:30:44.683Z,2.20
2019-02-01T01:33:13.817Z,1.60
2019-02-01T01:35:42.243Z,1.80
2019-02-01T01:38:10.681Z,2.00
2019-02-01T01:40:38.991Z,2.10
2019-02-01T01:43:07.734Z,2.20
2019-02-01T01:45:36.219Z,2.10
2019-02-01T01:48:05.705Z,2.50
2019-02-01T01:50:33.849Z,1.90
2019-02-01T01:53:02.366Z,2.20
2019-02-01T01:55:30.557Z,2.50
2019-02-01T01:57:58.726Z,2.00
2019-02-01T02:00:31.660Z,2.30
2019-02-01T02:02:59.763Z,2.20
2019-02-01T02:05:28.624Z,2.30
2019-02-01T02:07:57.882Z,2.60
2019-02-01T02:10:28.917Z,2.30
2019-02-01T02:12:57.500Z,2.20
2019-02-01T02:15:25.940Z,2.20
2019-02-01T02:17:55.229Z,2.10
2019-02-01T02:20:25.772Z,2.40
2019-02-01T02:22:54.491Z,2.20
2019-02-01T02:25:23.742Z,2.40
2019-02-01T02:27:52.102Z,2.40
2019-02-01T02:30:22.930Z,1.80
2019-02-01T02:32:51.085Z,2.30
2019-02-01T02:35:18.981Z,2.40
2019-02-01T02:37:46.975Z,2.40
2019-02-01T02:40:18.251Z,2.10
2019-02-01T02:42:46.502Z,2.20
2019-02-01T02:45:15.191Z,2.10
2019-02-01T02:47:43.334Z,2.30
2019-02-01T02:50:15.375Z,2.10
2019-02-01T02:52:43.414Z,1.90
2019-02-01T02:55:13.499Z,2.20
2019-02-01T02:57:41.593Z,2.00
2019-02-01T03:00:22.572Z,2.00
2019-02-01T03:02:50.920Z,2.10
2019-02-01T03:05:19.890Z,2.40
2019-02-01T03:07:48.273Z,2.30
2019-02-01T03:10:16.303Z,2.10
2019-02-01T03:12:44.327Z,2.20
2019-02-01T03:15:15.324Z,2.40
2019-02-01T03:17:43.471Z,2.50
2019-02-01T03:20:15.477Z,2.40
2019-02-01T03:22:43.485Z,2.20
2019-02-01T03:25:11.651Z,2.20
2019-02-01T03:27:39.866Z,1.90
2019-02-01T03:30:13.088Z,2.00
2019-02-01T03:32:41.303Z,2.30
2019-02-01T03:35:09.445Z,1.90
2019-02-01T03:37:37.374Z,2.30
2019-02-01T03:40:05.751Z,2.20
2019-02-01T03:42:33.792Z,2.10
2019-02-01T03:45:01.953Z,2.10
2019-02-01T03:47:30.007Z,2.20
2019-02-01T03:49:57.902Z,2.40
2019-02-01T03:52:25.707Z,2.60
2019-02-01T03:54:53.482Z,2.30
2019-02-01T03:57:21.400Z,2.10
2019-02-01T03:59:49.174Z,2.20
2019-02-01T04:02:17.125Z,2.30
2019-02-01T04:04:44.985Z,2.10
2019-02-01T04:07:12.773Z,2.20
2019-02-01T04:09:40.727Z,2.30
2019-02-01T04:12:08.516Z,2.50
2019-02-01T04:14:36.302Z,2.30
2019-02-01T04:17:04.439Z,2.60
2019-02-01T04:19:42.699Z,2.30
2019-02-01T04:22:03.039Z,2.50
2019-02-01T04:24:30.985Z,2.50
2019-02-01T04:26:58.790Z,2.40
2019-02-01T04:29:26.727Z,2.60
2019-02-01T04:31:54.645Z,2.40
2019-02-01T04:34:22.594Z,2.50
2019-02-01T04:36:50.415Z,2.70
2019-02-01T04:39:18.349Z,2.70
2019-02-01T04:41:46.177Z,2.40
2019-02-01T04:44:13.976Z,2.60
2019-02-01T04:46:41.908Z,2.60
2019-02-01T04:49:09.831Z,2.80
2019-02-01T04:51:37.750Z,2.60
2019-02-01T04:54:05.655Z,2.90
2019-02-01T04:56:33.465Z,2.90
2019-02-01T04:59:01.431Z,2.80
2019-02-01T05:01:29.287Z,2.80
2019-02-01T05:03:57.314Z,2.60
2019-02-01T05:06:25.147Z,2.90
2019-02-01T05:08:52.928Z,2.60
2019-02-01T05:11:21.034Z,2.90
2019-02-01T05:13:49.057Z,2.90
2019-02-01T05:16:16.991Z,3.00
2019-02-01T05:18:44.845Z,3.00
2019-02-01T05:21:12.711Z,2.80
2019-02-01T05:23:43.798Z,2.90
2019-02-01T05:26:11.662Z,2.70
2019-02-01T05:28:39.594Z,2.70
2019-02-01T05:31:07.562Z,3.00
2019-02-01T05:33:35.386Z,2.70
2019-02-01T05:36:03.838Z,2.80
2019-02-01T05:38:31.726Z,3.20
2019-02-01T05:40:59.531Z,3.00
2019-02-01T05:43:27.448Z,2.90
2019-02-01T05:45:55.298Z,2.80
2019-02-01T05:48:23.479Z,3.30
2019-02-01T05:50:51.359Z,3.10
2019-02-01T05:53:19.324Z,2.90
2019-02-01T05:55:47.143Z,3.20
2019-02-01T05:58:15.081Z,3.00
2019-02-01T06:00:43.512Z,3.10
2019-02-01T06:03:11.921Z,3.10
2019-02-01T06:05:40.359Z,3.20
2019-02-01T06:08:08.296Z,3.10
2019-02-01T06:10:37.659Z,3.40
2019-02-01T06:13:05.499Z,3.20
2019-02-01T06:15:33.821Z,3.20
2019-02-01T06:18:04.037Z,3.20
2019-02-01T06:20:40.258Z,3.30
2019-02-01T06:23:04.288Z,3.20
2019-02-01T06:25:32.907Z,3.30
2019-02-01T06:28:01.736Z,3.20
2019-02-01T06:30:30.204Z,3.50
2019-02-01T06:32:58.488Z,3.70
2019-02-01T06:35:26.555Z,3.10
2019-02-01T06:37:54.813Z,3.50
2019-02-01T06:40:31.928Z,3.60
2019-02-01T06:43:00.534Z,3.70
2019-02-01T06:45:28.523Z,3.80
2019-02-01T06:47:57.028Z,3.30
2019-02-01T06:50:36.966Z,3.20
2019-02-01T06:53:05.404Z,3.80
2019-02-01T06:55:33.280Z,3.20
2019-02-01T06:58:02.193Z,3.10
2019-02-01T07:00:34.476Z,3.30
2019-02-01T07:03:04.914Z,3.40
2019-02-01T07:05:35.326Z,3.50
2019-02-01T07:08:15.669Z,3.50
2019-02-01T07:11:01.995Z,3.30
2019-02-01T07:13:49.819Z,3.70
2019-02-01T07:16:36.292Z,3.70
2019-02-01T07:19:27.660Z,3.50
2019-02-01T07:22:08.475Z,3.50
2019-02-01T07:24:46.250Z,3.70
2019-02-01T07:27:24.334Z,3.80
2019-02-01T07:30:01.245Z,3.50
2019-02-01T07:32:51.344Z,3.70
2019-02-01T07:35:20.174Z,3.80
2019-02-01T07:37:48.801Z,3.50
2019-02-01T07:40:19.585Z,3.50
2019-02-01T07:42:47.560Z,3.50
2019-02-01T07:45:23.958Z,3.50
2019-02-01T07:47:51.831Z,3.50
2019-02-01T07:50:24.131Z,3.50
2019-02-01T07:52:51.710Z,3.60
2019-02-01T07:55:19.787Z,3.60
2019-02-01T07:57:51.710Z,3.20
2019-02-01T08:00:20.738Z,3.40
2019-02-01T08:02:49.884Z,3.50
2019-02-01T08:05:19.725Z,3.80
2019-02-01T08:07:48.891Z,3.70
2019-02-01T08:10:16.762Z,3.80
2019-02-01T08:12:44.760Z,3.80
2019-02-01T08:15:18.308Z,4.10
2019-02-01T08:17:46.420Z,4.10
2019-02-01T08:20:14.391Z,4.30
2019-02-01T08:22:43.389Z,4.20
2019-02-01T08:25:11.791Z,4.40
2019-02-01T08:27:39.815Z,4.40
2019-02-01T08:30:14.092Z,4.30
2019-02-01T08:32:43.214Z,4.50
2019-02-01T08:35:13.071Z,4.20
2019-02-01T08:37:41.873Z,4.00
2019-02-01T08:40:12.293Z,4.30
2019-02-01T08:42:40.643Z,4.60
2019-02-01T08:45:12.117Z,4.70
2019-02-01T08:47:41.221Z,4.70
2019-02-01T08:50:12.327Z,4.70
2019-02-01T08:52:40.649Z,4.80
2019-02-01T08:55:09.773Z,4.70
2019-02-01T08:57:37.729Z,4.70
2019-02-01T09:00:14.714Z,5.10
2019-02-01T09:02:44.834Z,4.70
2019-02-01T09:05:12.654Z,4.70
2019-02-01T09:07:40.937Z,5.00
2019-02-01T09:10:09.969Z,4.70
2019-02-01T09:12:37.804Z,4.80
2019-02-01T09:15:08.112Z,4.70
2019-02-01T09:17:36.038Z,4.90
2019-02-01T09:20:06.024Z,4.70
2019-02-01T09:22:33.874Z,4.70
2019-02-01T09:25:01.973Z,4.90
2019-02-01T09:27:29.924Z,5.30
2019-02-01T09:30:00.327Z,5.20
2019-02-01T09:32:28.881Z,5.30
2019-02-01T09:34:57.148Z,5.30
2019-02-01T09:37:26.338Z,5.00
2019-02-01T09:39:55.788Z,5.20
2019-02-01T09:42:24.778Z,5.40
2019-02-01T09:44:54.513Z,5.10
2019-02-01T09:47:26.607Z,5.40
2019-02-01T09:49:56.916Z,5.10
2019-02-01T09:52:25.657Z,5.30
2019-02-01T09:54:53.676Z,5.30
2019-02-01T09:57:22.329Z,5.20
2019-02-01T09:59:52.735Z,5.40
2019-02-01T10:02:21.894Z,5.20
2019-02-01T10:04:50.241Z,5.10
2019-02-01T10:07:18.263Z,5.40
2019-02-01T10:09:48.997Z,5.40
2019-02-01T10:12:17.053Z,5.40
2019-02-01T10:14:44.979Z,5.30
2019-02-01T10:17:13.384Z,5.70
2019-02-01T10:19:41.458Z,5.40
2019-02-01T10:22:13.789Z,5.70
2019-02-01T10:24:40.120Z,5.50
2019-02-01T10:27:08.101Z,5.40
2019-02-01T10:29:36.142Z,5.70
2019-02-01T10:32:04.767Z,5.70
2019-02-01T10:34:33.101Z,5.40
2019-02-01T10:37:02.159Z,6.10
2019-02-01T10:39:30.206Z,5.90
2019-02-01T10:42:03.702Z,5.90
2019-02-01T10:44:28.639Z,5.90
2019-02-01T10:47:03.936Z,5.90
2019-02-01T10:49:27.099Z,6.00
2019-02-01T10:51:55.384Z,6.40
2019-02-01T10:54:23.410Z,5.90
2019-02-01T10:56:51.400Z,6.00
2019-02-01T10:59:20.561Z,6.30
2019-02-01T11:01:48.592Z,6.50
2019-02-01T11:04:17.503Z,6.20
2019-02-01T11:06:45.422Z,6.10
2019-02-01T11:09:13.962Z,5.90
2019-02-01T11:11:42.049Z,6.00
2019-02-01T11:14:10.385Z,6.30
2019-02-01T11:16:40.992Z,6.30
2019-02-01T11:19:08.991Z,6.30
2019-02-01T11:21:36.807Z,6.20
2019-02-01T11:24:15.086Z,6.20
2019-02-01T11:26:34.726Z,6.30
2019-02-01T11:29:02.777Z,6.30
2019-02-01T11:31:33.913Z,6.30
2019-02-01T11:34:04.079Z,6.20
2019-02-01T11:36:33.455Z,6.20
2019-02-01T11:39:04.439Z,6.10
2019-02-01T11:41:33.635Z,6.30
2019-02-01T11:44:01.696Z,6.20
2019-02-01T11:46:31.319Z,6.50
2019-02-01T11:48:59.396Z,6.50
2019-02-01T11:51:27.650Z,6.30
2019-02-01T11:53:55.513Z,6.80
2019-02-01T11:56:25.627Z,6.60
2019-02-01T11:58:53.883Z,6.30
2019-02-01T12:01:21.881Z,6.70
2019-02-01T12:03:49.858Z,6.60
2019-02-01T12:06:23.516Z,6.50
2019-02-01T12:08:53.669Z,6.60
2019-02-01T12:11:21.718Z,6.60
2019-02-01T12:13:49.784Z,6.70
2019-02-01T12:16:18.337Z,6.70
2019-02-01T12:19:07.301Z,6.90
2019-02-01T12:21:57.963Z,6.50
2019-02-01T12:24:34.493Z,6.60
2019-02-01T12:27:10.776Z,6.60
2019-02-01T12:29:48.895Z,7.10
2019-02-01T12:32:34.970Z,7.30
2019-02-01T12:35:10.718Z,6.80
2019-02-01T12:37:57.871Z,7.00
2019-02-01T12:40:32.927Z,7.20
2019-02-01T12:43:04.172Z,7.70
2019-02-01T12:45:39.490Z,7.30
2019-02-01T12:48:21.792Z,7.40
2019-02-01T12:51:00.856Z,7.70
2019-02-01T12:53:39.416Z,7.30
2019-02-01T12:56:08.728Z,7.30
2019-02-01T12:58:37.514Z,7.30
2019-02-01T13:01:09.105Z,7.50
2019-02-01T13:03:37.671Z,7.50
2019-02-01T13:06:08.878Z,7.30
2019-02-01T13:08:39.366Z,7.30
2019-02-01T13:11:08.891Z,7.40
2019-02-01T13:13:37.836Z,7.60
2019-02-01T13:16:08.009Z,7.40
2019-02-01T13:18:38.685Z,7.70
2019-02-01T13:21:08.496Z,7.70
2019-02-01T13:23:39.128Z,7.60
2019-02-01T13:26:07.183Z,7.70
2019-02-01T13:28:35.487Z,7.80
2019-02-01T13:31:05.077Z,7.60
2019-02-01T13:33:34.238Z,7.90
2019-02-01T13:36:02.533Z,7.60
2019-02-01T13:38:32.715Z,7.30
2019-02-01T13:41:01.887Z,7.60
2019-02-01T13:43:29.931Z,7.60
2019-02-01T13:46:01.172Z,7.30
2019-02-01T13:48:30.647Z,7.30
2019-02-01T13:50:58.688Z,7.90
2019-02-01T13:53:34.706Z,7.70
2019-02-01T13:56:01.239Z,7.80
2019-02-01T13:58:30.578Z,7.80
2019-02-01T14:00:59.653Z,7.90
2019-02-01T14:03:28.222Z,7.80
2019-02-01T14:05:56.804Z,7.80
2019-02-01T14:08:27.518Z,7.90
2019-02-01T14:10:59.543Z,7.80
2019-02-01T14:13:28.432Z,7.70
2019-02-01T14:15:57.021Z,7.70
2019-02-01T14:18:24.889Z,8.10
2019-02-01T14:20:56.225Z,7.70
2019-02-01T14:23:48.985Z,7.90
2019-02-01T14:26:17.566Z,7.80
2019-02-01T14:28:46.115Z,7.90
2019-02-01T14:31:15.705Z,7.80
2019-02-01T14:33:45.128Z,7.70
2019-02-01T14:36:14.338Z,7.90
2019-02-01T14:38:53.518Z,7.80
2019-02-01T14:41:23.531Z,7.90
2019-02-01T14:43:53.205Z,8.20
2019-02-01T14:46:23.882Z,8.00
2019-02-01T14:48:52.041Z,8.20
2019-02-01T14:51:21.151Z,8.00
2019-02-01T14:53:58.557Z,8.00
2019-02-01T14:56:24.033Z,8.30
2019-02-01T14:58:51.872Z,8.30
2019-02-01T15:01:21.781Z,8.10
2019-02-01T15:03:52.393Z,8.10
2019-02-01T15:06:21.220Z,7.80
2019-02-01T15:08:50.533Z,7.80
2019-02-01T15:11:20.115Z,8.40
2019-02-01T15:13:48.124Z,8.40
2019-02-01T15:16:31.284Z,8.10
2019-02-01T15:18:47.620Z,8.00
2019-02-01T15:21:16.000Z,8.00
2019-02-01T15:23:48.582Z,8.00
2019-02-01T15:26:18.848Z,8.00
2019-02-01T15:28:46.960Z,7.80
2019-02-01T15:31:17.124Z,8.10
2019-02-01T15:33:50.621Z,7.80
2019-02-01T15:36:19.475Z,7.80
2019-02-01T15:38:47.897Z,7.90
2019-02-01T15:41:17.420Z,7.50
2019-02-01T15:43:47.322Z,7.70
2019-02-01T15:46:17.646Z,7.80
2019-02-01T15:48:45.996Z,7.70
2019-02-01T15:51:14.013Z,7.70
2019-02-01T15:53:44.439Z,8.00
2019-02-01T15:56:13.557Z,7.40
2019-02-01T15:58:46.984Z,7.50
2019-02-01T16:01:17.510Z,7.40
2019-02-01T16:03:49.198Z,7.60
2019-02-01T16:06:17.896Z,7.60
2019-02-01T16:08:48.110Z,7.30
2019-02-01T16:11:20.017Z,7.30
2019-02-01T16:13:48.878Z,7.70
2019-02-01T16:16:17.272Z,7.50
2019-02-01T16:18:45.657Z,7.50
2019-02-01T16:21:16.777Z,7.50
2019-02-01T16:23:44.845Z,7.40
2019-02-01T16:26:14.235Z,7.30
2019-02-01T16:28:46.179Z,7.10
2019-02-01T16:31:17.451Z,7.00
2019-02-01T16:33:48.242Z,7.00
2019-02-01T16:36:15.980Z,7.00
2019-02-01T16:38:45.323Z,7.00
2019-02-01T16:41:14.345Z,7.00
2019-02-01T16:43:44.198Z,7.00
2019-02-01T16:46:12.918Z,6.90
2019-02-01T16:48:41.460Z,6.90
2019-02-01T16:51:11.391Z,7.00
2019-02-01T16:53:40.566Z,6.90
2019-02-01T16:56:08.843Z,7.10
2019-02-01T16:58:37.329Z,7.00
2019-02-01T17:01:07.609Z,7.00
2019-02-01T17:03:35.856Z,7.30
2019-02-01T17:06:05.266Z,7.00
2019-02-01T17:08:33.231Z,6.80
2019-02-01T17:11:03.513Z,6.90
2019-02-01T17:13:31.580Z,7.20
2019-02-01T17:16:00.960Z,7.00
2019-02-01T17:18:29.457Z,6.90
2019-02-01T17:20:57.954Z,7.10
2019-02-01T17:23:26.503Z,6.70
2019-02-01T17:25:56.650Z,6.80
2019-02-01T17:28:24.983Z,6.70
2019-02-01T17:30:53.249Z,6.60
2019-02-01T17:33:21.318Z,6.70
2019-02-01T17:35:49.650Z,6.70
2019-02-01T17:38:17.958Z,6.60
2019-02-01T17:40:47.605Z,7.10
2019-02-01T17:43:15.921Z,6.80
2019-02-01T17:45:44.253Z,7.10
2019-02-01T17:48:12.925Z,7.10
2019-02-01T17:50:43.783Z,6.80
2019-02-01T17:53:13.044Z,6.80
2019-02-01T17:55:41.664Z,7.00
2019-02-01T17:58:10.077Z,7.00
2019-02-01T18:01:07.108Z,7.00
2019-02-01T18:03:38.307Z,6.90
2019-02-01T18:06:06.861Z,7.00
2019-02-01T18:08:35.035Z,7.00
2019-02-01T18:11:03.825Z,6.90
2019-02-01T18:13:34.327Z,6.90
2019-02-01T18:16:04.334Z,6.90
2019-02-01T18:18:37.357Z,7.00
2019-02-01T18:21:06.620Z,7.00
2019-02-01T18:23:34.591Z,7.10
2019-02-01T18:26:03.351Z,7.10
2019-02-01T18:28:31.589Z,6.70
2019-02-01T18:31:00.076Z,7.00
2019-02-01T18:33:28.468Z,6.50
2019-02-01T18:35:56.471Z,6.90
2019-02-01T18:38:24.735Z,6.80
2019-02-01T18:40:52.849Z,6.70
2019-02-01T18:43:20.752Z,7.00
2019-02-01T18:45:48.873Z,6.70
2019-02-01T18:48:18.215Z,7.10
2019-02-01T18:50:47.062Z,7.10
2019-02-01T18:53:15.157Z,7.00
2019-02-01T18:55:43.057Z,6.90
2019-02-01T18:58:11.977Z,6.70
2019-02-01T19:00:51.590Z,6.70
2019-02-01T19:03:10.652Z,6.70
2019-02-01T19:05:40.796Z,6.60
2019-02-01T19:08:10.212Z,7.00
2019-02-01T19:10:44.853Z,6.70
2019-02-01T19:13:13.945Z,6.90
2019-02-01T19:15:41.842Z,6.70
2019-02-01T19:18:10.168Z,6.60
2019-02-01T19:20:38.126Z,6.40
2019-02-01T19:23:06.190Z,6.40
2019-02-01T19:25:44.495Z,6.50
2019-02-01T19:28:06.129Z,6.50
2019-02-01T19:30:43.644Z,6.30
2019-02-01T19:33:11.584Z,6.20
2019-02-01T19:35:40.534Z,6.40
2019-02-01T19:38:15.071Z,6.10
2019-02-01T19:40:43.692Z,6.30
2019-02-01T19:43:11.733Z,6.40
2019-02-01T19:45:39.753Z,6.40
2019-02-01T19:48:10.007Z,6.50
2019-02-01T19:50:38.021Z,6.30
2019-02-01T19:53:06.223Z,6.60
2019-02-01T19:55:37.867Z,6.50
2019-02-01T19:58:06.351Z,6.80
2019-02-01T20:00:34.332Z,6.60
2019-02-01T20:03:02.369Z,6.70
2019-02-01T20:05:30.651Z,6.60
2019-02-01T20:07:58.749Z,6.80
2019-02-01T20:10:28.240Z,6.50
2019-02-01T20:12:56.313Z,6.00
2019-02-01T20:15:24.364Z,6.00
2019-02-01T20:17:52.232Z,5.90
2019-02-01T20:20:24.149Z,6.00
2019-02-01T20:22:55.776Z,6.10
2019-02-01T20:25:26.033Z,6.20
2019-02-01T20:27:57.433Z,5.90
2019-02-01T20:30:28.835Z,6.10
2019-02-01T20:32:57.113Z,5.90
2019-02-01T20:35:25.251Z,5.90
2019-02-01T20:37:53.177Z,6.20
2019-02-01T20:40:33.235Z,6.30
2019-02-01T20:43:01.219Z,6.40
2019-02-01T20:45:29.145Z,6.10
2019-02-01T20:47:57.204Z,6.50
2019-02-01T20:50:25.187Z,6.40
2019-02-01T20:52:53.150Z,6.30
2019-02-01T20:55:22.794Z,6.10
2019-02-01T20:57:51.062Z,6.30
2019-02-01T21:00:24.163Z,6.10
2019-02-01T21:02:54.412Z,6.20
2019-02-01T21:05:25.532Z,6.10
2019-02-01T21:07:53.490Z,6.00
2019-02-01T21:10:21.827Z,6.00
2019-02-01T21:12:49.919Z,6.20
2019-02-01T21:15:20.714Z,6.20
2019-02-01T21:17:48.753Z,6.00
2019-02-01T21:20:18.928Z,6.00
2019-02-01T21:22:46.890Z,6.00
2019-02-01T21:25:19.015Z,5.80
2019-02-01T21:27:49.426Z,5.80
2019-02-01T21:30:32.735Z,6.00
2019-02-01T21:33:00.843Z,5.70
2019-02-01T21:35:31.667Z,5.50
2019-02-01T21:38:00.105Z,5.80
2019-02-01T21:40:28.541Z,5.60
2019-02-01T21:42:56.760Z,5.90
2019-02-01T21:45:25.525Z,6.00
2019-02-01T21:47:55.986Z,6.00
2019-02-01T21:50:27.196Z,6.00
2019-02-01T21:52:55.292Z,6.10
2019-02-01T21:55:23.400Z,5.80
2019-02-01T21:57:51.388Z,6.00
2019-02-01T22:00:22.723Z,6.10
2019-02-01T22:02:50.747Z,5.90
2019-02-01T22:05:18.851Z,6.20
2019-02-01T22:07:46.935Z,6.50
2019-02-01T22:10:21.193Z,6.30
2019-02-01T22:12:49.235Z,6.20
2019-02-01T22:15:18.085Z,6.20
2019-02-01T22:17:46.118Z,6.30
2019-02-01T22:20:17.207Z,6.00
2019-02-01T22:22:45.206Z,6.10
2019-02-01T22:25:13.832Z,6.20
2019-02-01T22:27:41.957Z,6.40
2019-02-01T22:30:23.407Z,6.40
2019-02-01T22:32:51.426Z,6.20
2019-02-01T22:35:19.645Z,6.20
2019-02-01T22:37:47.773Z,6.20
2019-02-01T22:40:19.115Z,6.30
2019-02-01T22:42:47.062Z,6.40
2019-02-01T22:45:15.235Z,6.30
2019-02-01T22:47:43.170Z,6.40
2019-02-01T22:50:18.518Z,6.30
2019-02-01T22:52:46.603Z,6.30
2019-02-01T22:55:14.652Z,6.30
2019-02-01T22:57:42.649Z,6.20
2019-02-01T23:01:01.973Z,6.30
2019-02-01T23:04:02.725Z,6.20
2019-02-01T23:06:30.788Z,6.60
2019-02-01T23:08:58.928Z,6.30
2019-02-01T23:11:26.954Z,6.50
2019-02-01T23:13:55.107Z,6.40
2019-02-01T23:16:22.999Z,6.00
2019-02-01T23:18:50.980Z,6.10
2019-02-01T23:21:18.841Z,6.10
2019-02-01T23:23:46.861Z,6.10
2019-02-01T23:26:14.942Z,6.50
2019-02-01T23:28:42.809Z,6.20
2019-02-01T23:31:10.821Z,6.00
2019-02-01T23:33:38.771Z,6.00
2019-02-01T23:36:07.236Z,6.00
2019-02-01T23:38:35.239Z,6.10
2019-02-01T23:41:04.137Z,5.80
2019-02-01T23:43:32.082Z,6.10
2019-02-01T23:46:00.088Z,5.80
2019-02-01T23:48:28.247Z,5.80
2019-02-01T23:50:56.247Z,6.10
2019-02-01T23:53:24.345Z,5.80
2019-02-01T23:55:52.327Z,6.10
2019-02-01T23:58:20.488Z,5.80
